Time;durP1;ratioP1;P1;durP2;ratioP2;P2;SDS_P1;SDS_P2;PMS_P1;PMS_P2;Temp;Humidity;BMP_temperature;BMP_pressure;BME280_temperature;BME280_humidity;BME280_pressure;Samples;Min_cycle;Max_cycle;Signal;HPM_P1;HPM_P2
2020/12/13 00:02:16;;;;;;;32.28;12.63;;;;;;;-0.27;78.80;100399.02;1710526;82;21367;-67
2020/12/13 00:04:43;;;;;;;32.38;12.05;;;;;;;-0.26;78.89;100396.20;1710593;82;21050;-62
2020/12/13 00:07:11;;;;;;;26.75;10.93;;;;;;;-0.23;78.89;100401.81;1710742;84;21221;-64
2020/12/13 00:09:38;;;;;;;28.57;11.50;;;;;;;-0.22;78.93;100392.75;1710458;82;21114;-62
2020/12/13 00:12:06;;;;;;;31.50;11.38;;;;;;;-0.20;78.98;100401.56;1710610;82;21323;-64
2020/12/13 00:14:34;;;;;;;30.75;11.35;;;;;;;-0.17;79.00;100400.81;1710549;82;21326;-65
2020/12/13 00:17:01;;;;;;;30.25;11.12;;;;;;;-0.17;78.97;100399.95;1710539;82;21066;-62
2020/12/13 00:19:29;;;;;;;27.52;11.20;;;;;;;-0.20;78.92;100409.14;1710591;82;21042;-66
2020/12/13 00:21:56;;;;;;;29.40;11.08;;;;;;;-0.20;79.08;100405.11;1710605;82;21216;-66
2020/12/13 00:24:24;;;;;;;31.80;11.63;;;;;;;-0.17;79.10;100408.88;1710453;82;21037;-65
2020/12/13 00:26:51;;;;;;;29.87;11.45;;;;;;;-0.16;79.14;100409.25;1710517;83;21302;-63
2020/12/13 00:29:19;;;;;;;29.25;11.33;;;;;;;-0.14;79.16;100410.47;1710401;83;21821;-64
2020/12/13 00:31:51;;;;;;;26.55;10.85;;;;;;;-0.12;79.13;100411.19;1710404;84;21303;-64
2020/12/13 00:34:19;;;;;;;27.02;11.43;;;;;;;-0.11;79.17;100407.52;1710526;82;21886;-63
2020/12/13 00:36:52;;;;;;;30.55;11.33;;;;;;;-0.08;79.17;100412.64;1710443;82;21781;-63
2020/12/13 00:39:20;;;;;;;31.05;11.53;;;;;;;-0.10;79.07;100403.84;1710399;82;21050;-63
2020/12/13 00:41:52;;;;;;;27.75;10.38;;;;;;;-0.11;79.17;100400.29;1710419;82;21260;-63
2020/12/13 00:44:19;;;;;;;29.18;11.10;;;;;;;-0.08;79.28;100399.17;1701757;82;21789;-63
2020/12/13 00:46:47;;;;;;;21.87;10.08;;;;;;;-0.06;79.23;100394.52;1699107;84;21385;-63
2020/12/13 00:49:14;;;;;;;28.90;11.28;;;;;;;-0.06;79.25;100400.75;1698389;84;21824;-64
2020/12/13 00:51:42;;;;;;;30.92;11.33;;;;;;;-0.07;79.17;100394.16;1698642;84;21362;-66
2020/12/13 00:54:10;;;;;;;30.85;11.18;;;;;;;-0.09;79.17;100396.12;1698444;84;21044;-63
2020/12/13 00:56:38;;;;;;;27.77;11.25;;;;;;;-0.10;79.24;100392.57;1698453;84;21135;-63
2020/12/13 00:59:06;;;;;;;29.87;11.38;;;;;;;-0.09;79.29;100392.94;1698411;84;21155;-64
2020/12/13 01:01:33;;;;;;;24.95;11.38;;;;;;;-0.08;79.26;100391.09;1698607;84;21223;-63
2020/12/13 01:04:01;;;;;;;30.23;12.15;;;;;;;-0.09;79.31;100386.70;1698684;84;21819;-63
2020/12/13 01:06:29;;;;;;;26.77;10.28;;;;;;;-0.09;79.40;100380.81;1698667;84;21283;-63
2020/12/13 01:08:56;;;;;;;28.02;10.28;;;;;;;-0.06;79.42;100371.63;1698645;84;21116;-63
2020/12/13 01:11:30;;;;;;;24.47;9.68;;;;;;;-0.07;79.38;100376.65;1698432;84;21111;-64
2020/12/13 01:13:58;;;;;;;23.47;9.15;;;;;;;-0.09;79.38;100383.51;1698497;84;21418;-64
2020/12/13 01:16:27;;;;;;;25.23;10.75;;;;;;;-0.08;79.51;100380.33;1698438;84;21110;-63
2020/12/13 01:18:57;;;;;;;28.07;10.40;;;;;;;-0.07;79.62;100377.99;1698474;84;21217;-62
2020/12/13 01:21:26;;;;;;;28.92;10.68;;;;;;;-0.08;79.54;100377.14;1698485;84;21079;-63
2020/12/13 01:23:54;;;;;;;24.05;9.58;;;;;;;-0.11;79.54;100385.97;1698523;84;21763;-64
2020/12/13 01:26:24;;;;;;;27.10;9.78;;;;;;;-0.14;79.61;100375.45;1698597;84;21830;-64
2020/12/13 01:28:52;;;;;;;21.17;8.88;;;;;;;-0.16;79.63;100377.43;1698502;84;21734;-63
2020/12/13 01:31:20;;;;;;;26.48;10.05;;;;;;;-0.15;79.79;100375.09;1698440;84;21962;-65
2020/12/13 01:33:50;;;;;;;25.48;10.75;;;;;;;-0.17;79.91;100364.45;1698486;84;21321;-64
2020/12/13 01:36:21;;;;;;;22.27;9.28;;;;;;;-0.16;79.93;100364.82;1698549;84;21071;-63
2020/12/13 01:38:49;;;;;;;28.00;10.38;;;;;;;-0.15;79.98;100364.33;1698453;84;21386;-62
2020/12/13 01:41:17;;;;;;;24.95;10.00;;;;;;;-0.11;80.19;100367.13;1698567;84;21075;-63
2020/12/13 01:43:57;;;;;;;21.07;8.50;;;;;;;-0.09;80.19;100367.84;1703406;83;21803;-64
2020/12/13 01:46:24;;;;;;;24.32;8.73;;;;;;;-0.08;80.18;100370.41;1708860;83;21099;-64
2020/12/13 01:49:02;;;;;;;22.58;8.90;;;;;;;-0.07;80.16;100364.53;1709039;83;21115;-63
2020/12/13 01:54:26;;;;;;;20.77;9.18;;;;;;;-0.08;80.13;100358.78;1708906;83;21125;-64
2020/12/13 01:56:56;;;;;;;24.00;7.92;;;;;;;-0.09;80.22;100357.92;1708743;83;21357;-65
2020/12/13 01:59:25;;;;;;;18.05;8.50;;;;;;;-0.06;80.27;100354.12;1708814;83;21865;-65
2020/12/13 02:01:58;;;;;;;18.32;8.70;;;;;;;-0.05;80.24;100341.02;1708950;83;21075;-62
2020/12/13 02:04:27;;;;;;;19.37;7.85;;;;;;;-0.04;80.24;100349.45;1708897;84;21851;-62
2020/12/13 02:06:55;;;;;;;21.80;8.58;;;;;;;-0.04;80.20;100351.66;1709929;84;21774;-64
2020/12/13 02:09:24;;;;;;;20.68;8.75;;;;;;;-0.04;80.19;100353.50;1708975;83;21408;-63
2020/12/13 02:11:53;;;;;;;19.50;8.73;;;;;;;-0.02;80.25;100359.60;1708865;84;21075;-65
2020/12/13 02:14:20;;;;;;;18.50;8.15;;;;;;;0.00;80.29;100364.40;1708921;83;21365;-63
2020/12/13 02:16:48;;;;;;;18.55;8.53;;;;;;;-0.01;80.20;100364.00;1708983;83;21165;-63
2020/12/13 02:19:16;;;;;;;18.48;8.18;;;;;;;-0.02;80.27;100364.50;1708800;83;21185;-63
2020/12/13 02:21:48;;;;;;;15.85;7.97;;;;;;;0.05;80.39;100368.05;1708785;83;21736;-65
2020/12/13 02:24:16;;;;;;;16.25;7.87;;;;;;;0.04;80.28;100357.77;1708600;83;21360;-64
2020/12/13 02:26:44;;;;;;;19.48;8.88;;;;;;;0.03;80.28;100357.41;1708691;84;21445;-63
2020/12/13 02:29:12;;;;;;;19.75;8.40;;;;;;;0.05;80.35;100353.23;1708640;84;21704;-63
2020/12/13 02:31:40;;;;;;;17.07;8.53;;;;;;;0.07;80.43;100364.73;1709067;83;21360;-63
2020/12/13 02:34:07;;;;;;;18.50;8.65;;;;;;;0.11;80.49;100352.70;1708843;83;21199;-62
2020/12/13 02:36:35;;;;;;;23.87;8.70;;;;;;;0.15;80.54;100356.84;1708790;83;21282;-66
2020/12/13 02:39:05;;;;;;;20.12;8.13;;;;;;;0.15;80.51;100355.00;1708906;83;21059;-62
2020/12/13 02:41:33;;;;;;;20.80;9.10;;;;;;;0.16;80.41;100354.02;1708953;84;21261;-64
2020/12/13 02:44:00;;;;;;;18.17;8.73;;;;;;;0.16;80.43;100348.63;1708014;83;21094;-64
2020/12/13 02:46:28;;;;;;;23.18;9.38;;;;;;;0.20;80.52;100362.69;1707164;84;21818;-62
2020/12/13 02:48:55;;;;;;;20.88;9.45;;;;;;;0.19;80.56;100351.55;1706622;83;21100;-64
2020/12/13 02:51:23;;;;;;;24.12;9.88;;;;;;;0.21;80.61;100354.96;1706647;84;21425;-62
2020/12/13 02:53:50;;;;;;;20.88;9.98;;;;;;;0.23;80.69;100348.95;1706787;84;21064;-63
2020/12/13 02:56:17;;;;;;;19.45;8.78;;;;;;;0.28;80.76;100357.48;1706512;83;21745;-64
2020/12/13 02:58:45;;;;;;;23.70;9.58;;;;;;;0.29;80.68;100359.20;1706739;84;21393;-63
2020/12/13 03:01:13;;;;;;;23.07;9.38;;;;;;;0.27;80.75;100357.12;1706676;84;21821;-63
2020/12/13 03:03:40;;;;;;;22.25;9.05;;;;;;;0.27;80.81;100357.98;1706605;84;21853;-62
2020/12/13 03:06:08;;;;;;;21.73;9.25;;;;;;;0.31;80.84;100363.95;1706862;83;21304;-62
2020/12/13 03:08:36;;;;;;;18.90;8.48;;;;;;;0.33;80.81;100362.48;1706567;83;21339;-63
2020/12/13 03:11:03;;;;;;;23.18;9.58;;;;;;;0.31;80.79;100363.47;1706827;83;21346;-62
2020/12/13 03:13:31;;;;;;;22.05;8.80;;;;;;;0.30;80.96;100364.45;1706497;84;21087;-63
2020/12/13 03:15:59;;;;;;;20.52;8.93;;;;;;;0.34;81.08;100368.23;1706983;84;21340;-62
2020/12/13 03:18:26;;;;;;;24.12;9.45;;;;;;;0.39;81.11;100370.03;1706436;84;21340;-63
2020/12/13 03:20:53;;;;;;;24.65;9.48;;;;;;;0.41;81.10;100368.91;1706680;83;21028;-63
2020/12/13 03:23:21;;;;;;;23.52;9.55;;;;;;;0.42;81.09;100368.41;1706644;84;21310;-62
2020/12/13 03:25:49;;;;;;;25.20;8.93;;;;;;;0.42;81.17;100361.19;1706512;84;21300;-63
2020/12/13 03:28:16;;;;;;;21.02;9.18;;;;;;;0.45;81.18;100358.71;1706324;84;21067;-64
2020/12/13 03:30:44;;;;;;;21.23;9.05;;;;;;;0.47;81.14;100360.78;1706451;83;21791;-62
2020/12/13 03:33:11;;;;;;;18.07;8.65;;;;;;;0.49;81.13;100362.35;1706638;84;21297;-62
2020/12/13 03:35:39;;;;;;;21.40;9.23;;;;;;;0.52;81.19;100358.53;1706459;83;21044;-63
2020/12/13 03:38:06;;;;;;;18.70;8.38;;;;;;;0.52;81.16;100350.45;1706537;84;21854;-62
2020/12/13 03:40:34;;;;;;;21.00;8.68;;;;;;;0.49;81.11;100342.14;1706507;84;21374;-64
2020/12/13 03:43:01;;;;;;;22.60;9.10;;;;;;;0.45;81.09;100344.74;1706253;83;21067;-65
2020/12/13 03:45:28;;;;;;;20.43;9.25;;;;;;;0.44;81.22;100330.91;1708934;83;21850;-62
2020/12/13 03:47:56;;;;;;;19.48;9.05;;;;;;;0.44;81.34;100333.59;1708899;83;21858;-64
2020/12/13 03:50:23;;;;;;;20.80;9.05;;;;;;;0.47;81.45;100332.48;1708626;84;21436;-62
2020/12/13 03:52:52;;;;;;;19.87;8.33;;;;;;;0.46;81.47;100330.77;1708780;83;21185;-63
2020/12/13 03:55:19;;;;;;;20.05;9.38;;;;;;;0.44;81.55;100325.52;1708759;83;21961;-64
2020/12/13 03:57:47;;;;;;;18.57;8.25;;;;;;;0.47;81.63;100330.64;1708526;83;21090;-63
2020/12/13 04:00:14;;;;;;;19.48;8.98;;;;;;;0.50;81.68;100325.47;1708701;83;21882;-64
2020/12/13 04:02:42;;;;;;;20.77;9.45;;;;;;;0.51;81.76;100336.11;1708746;83;21090;-65
2020/12/13 04:05:09;;;;;;;21.27;9.10;;;;;;;0.55;81.88;100342.09;1708885;83;21293;-63
2020/12/13 04:07:37;;;;;;;22.35;10.13;;;;;;;0.57;81.99;100347.70;1708873;83;21462;-65
2020/12/13 04:10:04;;;;;;;20.25;9.43;;;;;;;0.59;81.99;100345.73;1708826;83;21862;-61
2020/12/13 04:12:31;;;;;;;19.27;8.80;;;;;;;0.64;81.99;100352.91;1708759;83;21182;-62
2020/12/13 04:15:00;;;;;;;20.30;9.25;;;;;;;0.69;82.00;100357.94;1708841;84;21268;-63
2020/12/13 04:17:27;;;;;;;21.12;9.60;;;;;;;0.73;82.02;100351.77;1708871;83;21105;-65
2020/12/13 04:19:54;;;;;;;17.92;7.72;;;;;;;0.75;82.01;100357.39;1708769;83;21087;-65
2020/12/13 04:22:22;;;;;;;20.23;9.38;;;;;;;0.76;81.94;100355.05;1708913;83;21187;-63
2020/12/13 04:24:49;;;;;;;21.45;10.13;;;;;;;0.75;81.90;100360.09;1680623;84;21333;-67
2020/12/13 04:27:16;;;;;;;22.40;10.40;;;;;;;0.78;81.92;100364.36;1708875;83;21866;-64
2020/12/13 04:29:44;;;;;;;23.92;10.60;;;;;;;0.80;81.93;100360.53;1708802;83;21067;-65
2020/12/13 04:32:12;;;;;;;25.12;12.07;;;;;;;0.81;81.94;100361.38;1708999;83;21091;-64
2020/12/13 04:34:39;;;;;;;23.90;10.48;;;;;;;0.79;81.99;100355.28;1708926;83;21106;-65
2020/12/13 04:37:07;;;;;;;25.68;12.03;;;;;;;0.82;82.09;100353.16;1708767;83;21051;-64
2020/12/13 04:39:34;;;;;;;28.27;12.85;;;;;;;0.86;82.08;100355.09;1708892;83;21090;-64
2020/12/13 04:42:03;;;;;;;25.82;12.60;;;;;;;0.89;82.10;100354.31;1708764;83;21051;-66
2020/12/13 04:44:30;;;;;;;27.10;14.33;;;;;;;0.93;82.13;100352.20;1708132;83;21346;-63
2020/12/13 04:47:05;;;;;;;32.30;14.65;;;;;;;0.97;82.17;100347.38;1706483;83;21630;-64
2020/12/13 04:49:35;;;;;;;34.35;15.23;;;;;;;0.99;82.15;100355.70;1706595;83;21361;-66
2020/12/13 04:52:04;;;;;;;29.85;14.85;;;;;;;1.01;82.15;100352.37;1706485;83;21067;-65
2020/12/13 04:54:31;;;;;;;34.40;15.40;;;;;;;1.05;82.13;100353.80;1706515;83;21777;-64
2020/12/13 04:56:59;;;;;;;31.33;14.83;;;;;;;1.09;82.11;100361.12;1706628;83;21090;-64
2020/12/13 04:59:27;;;;;;;36.20;18.48;;;;;;;1.10;82.10;100365.52;1706702;83;21246;-63
2020/12/13 05:01:54;;;;;;;35.60;16.45;;;;;;;1.09;82.10;100360.62;1706538;84;21741;-62
2020/12/13 05:04:22;;;;;;;36.10;15.98;;;;;;;1.12;82.15;100356.80;1706696;84;21326;-64
2020/12/13 05:06:50;;;;;;;36.00;17.10;;;;;;;1.13;82.11;100354.45;1706687;83;21361;-64
2020/12/13 05:09:17;;;;;;;36.28;16.27;;;;;;;1.13;82.12;100355.80;1706618;84;21036;-64
2020/12/13 05:11:47;;;;;;;35.10;15.15;;;;;;;1.16;82.22;100360.92;1660015;84;21083;-63
2020/12/13 05:14:14;;;;;;;41.23;17.95;;;;;;;1.15;82.26;100356.52;1706335;84;21079;-63
2020/12/13 05:16:42;;;;;;;39.85;17.07;;;;;;;1.13;82.28;100351.27;1706515;83;21784;-62
2020/12/13 05:19:09;;;;;;;41.10;17.75;;;;;;;1.14;82.40;100352.11;1706666;83;21358;-63
2020/12/13 05:21:38;;;;;;;35.92;15.53;;;;;;;1.18;82.42;100357.09;1706632;84;21223;-64
2020/12/13 05:24:07;;;;;;;35.40;15.58;;;;;;;1.20;82.51;100363.20;1682402;84;21107;-63
2020/12/13 05:26:34;;;;;;;36.95;15.25;;;;;;;1.22;82.58;100352.27;1706412;84;21617;-63
2020/12/13 05:29:04;;;;;;;33.33;14.45;;;;;;;1.20;82.58;100352.91;1706593;83;21841;-63
2020/12/13 05:31:34;;;;;;;41.92;15.18;;;;;;;1.19;82.67;100350.70;1706661;84;21325;-64
2020/12/13 05:34:04;;;;;;;36.40;15.43;;;;;;;1.20;82.77;100356.95;1706319;84;21056;-62
2020/12/13 05:36:34;;;;;;;36.60;14.30;;;;;;;1.23;82.83;100354.83;1706741;84;21795;-64
2020/12/13 05:39:00;;;;;;;32.95;13.70;;;;;;;1.25;82.85;100353.34;1682875;84;21382;-63
2020/12/13 05:41:33;;;;;;;33.15;14.18;;;;;;;1.26;82.93;100353.70;1706767;83;21070;-62
2020/12/13 05:44:14;;;;;;;33.95;13.78;;;;;;;1.28;83.03;100358.46;1706730;83;21819;-64
2020/12/13 05:51:40;;;;;;;35.35;13.28;;;;;;;1.35;83.06;100348.84;1706676;83;21079;-64
2020/12/13 05:56:59;;;;;;;33.02;14.10;;;;;;;1.37;83.06;100344.66;1706224;84;21091;-61
2020/12/13 05:59:30;;;;;;;34.13;13.85;;;;;;;1.38;83.10;100352.62;1706258;84;21957;-63
2020/12/13 06:02:01;;;;;;;30.97;13.65;;;;;;;1.37;83.06;100349.56;1706692;84;21318;-64
2020/12/13 06:04:32;;;;;;;31.62;11.90;;;;;;;1.35;83.05;100346.14;1706434;84;21265;-62
2020/12/13 06:07:02;;;;;;;26.95;11.43;;;;;;;1.36;83.08;100351.91;1706329;84;21051;-64
2020/12/13 06:09:33;;;;;;;33.35;13.53;;;;;;;1.39;83.09;100355.67;1706348;84;21358;-62
2020/12/13 06:12:11;;;;;;;31.00;13.32;;;;;;;1.39;83.09;100357.02;1706723;83;21074;-64
2020/12/13 06:14:45;;;;;;;32.33;12.13;;;;;;;1.40;83.11;100361.92;1706688;83;21345;-63
2020/12/13 06:17:10;;;;;;;33.38;13.25;;;;;;;1.40;83.10;100362.77;1706309;84;21804;-61
2020/12/13 06:19:38;;;;;;;32.23;12.80;;;;;;;1.40;83.02;100365.97;1706716;83;21310;-62
2020/12/13 06:22:10;;;;;;;33.73;13.00;;;;;;;1.39;83.00;100366.47;1706746;83;21135;-64
2020/12/13 06:24:39;;;;;;;32.17;13.62;;;;;;;1.41;83.06;100373.08;1660965;84;21083;-62
2020/12/13 06:27:06;;;;;;;33.42;13.40;;;;;;;1.42;83.02;100368.89;1706563;83;21777;-63
2020/12/13 06:29:34;;;;;;;39.53;14.65;;;;;;;1.42;82.98;100365.34;1682419;84;21466;-63
2020/12/13 06:32:01;;;;;;;32.25;13.40;;;;;;;1.39;82.97;100365.12;1706748;83;21080;-65
2020/12/13 06:34:30;;;;;;;32.33;11.00;;;;;;;1.37;83.03;100369.80;1706761;83;21075;-62
2020/12/13 06:36:57;;;;;;;38.75;13.83;;;;;;;1.38;83.05;100363.91;1706741;84;21192;-63
2020/12/13 06:39:26;;;;;;;36.93;15.38;;;;;;;1.35;83.06;100362.34;1706835;84;21044;-62
2020/12/13 06:41:55;;;;;;;39.40;16.12;;;;;;;1.36;83.09;100357.30;1683166;84;21161;-63
2020/12/13 06:44:23;;;;;;;45.35;17.07;;;;;;;1.37;83.15;100360.36;1706766;84;21204;-63
2020/12/13 06:46:50;;;;;;;40.65;15.50;;;;;;;1.39;83.23;100358.37;1708889;83;21874;-63
2020/12/13 06:49:18;;;;;;;44.95;16.42;;;;;;;1.43;83.29;100358.94;1708983;83;22010;-64
2020/12/13 06:51:47;;;;;;;51.50;19.17;;;;;;;1.44;83.24;100357.95;1709010;84;21197;-63
2020/12/13 06:54:17;;;;;;;53.00;21.07;;;;;;;1.45;83.22;100358.30;1709113;84;21262;-64
2020/12/13 06:56:46;;;;;;;53.68;21.17;;;;;;;1.45;83.23;100363.20;1709019;83;21350;-63
2020/12/13 06:59:15;;;;;;;48.10;18.42;;;;;;;1.46;83.25;100355.47;1709205;83;21370;-62
2020/12/13 07:01:43;;;;;;;59.98;22.32;;;;;;;1.46;83.26;100374.36;1658538;83;21684;-63
2020/12/13 07:04:36;;;;;;;57.30;20.20;;;;;;;1.46;83.30;100362.22;1709207;83;21099;-65
2020/12/13 07:07:19;;;;;;;59.30;20.65;;;;;;;1.47;83.34;100367.97;1708004;84;21334;-63
2020/12/13 07:09:41;;;;;;;46.68;18.32;;;;;;;1.48;83.31;100365.63;1708210;84;21302;-63
2020/12/13 07:12:09;;;;;;;58.85;21.85;;;;;;;1.50;83.25;100372.23;1709137;83;21262;-63
2020/12/13 07:14:39;;;;;;;55.67;20.68;;;;;;;1.48;83.24;100364.27;1681075;84;21282;-64
2020/12/13 07:17:13;;;;;;;59.70;21.00;;;;;;;1.47;83.26;100370.67;1681006;83;21201;-63
2020/12/13 07:19:40;;;;;;;56.23;19.32;;;;;;;1.45;83.26;100367.26;1708596;83;21340;-64
2020/12/13 07:22:10;;;;;;;51.95;18.77;;;;;;;1.46;83.29;100364.91;1708788;83;21397;-63
2020/12/13 07:24:42;;;;;;;51.95;19.75;;;;;;;1.46;83.30;100367.61;1708948;83;21072;-64
2020/12/13 07:27:10;;;;;;;54.65;21.02;;;;;;;1.48;83.34;100371.52;1708966;83;21101;-62
2020/12/13 07:29:37;;;;;;;57.88;23.02;;;;;;;1.50;83.34;100371.73;1709019;83;21179;-64
2020/12/13 07:32:06;;;;;;;49.83;20.00;;;;;;;1.51;83.37;100372.09;1709021;83;21082;-62
2020/12/13 07:34:34;;;;;;;55.52;21.23;;;;;;;1.53;83.39;100376.86;1708956;83;21231;-64
2020/12/13 07:37:02;;;;;;;53.02;17.90;;;;;;;1.52;83.36;100376.50;1709032;83;21055;-64
2020/12/13 07:39:30;;;;;;;63.17;21.62;;;;;;;1.53;83.34;100376.01;1709174;83;21545;-62
2020/12/13 07:41:57;;;;;;;46.98;17.60;;;;;;;1.54;83.34;100383.97;1709033;83;21760;-64
2020/12/13 07:44:32;;;;;;;56.28;20.60;;;;;;;1.52;83.31;100381.90;1709110;84;21321;-65
2020/12/13 07:46:59;;;;;;;61.73;22.73;;;;;;;1.48;83.38;100380.97;1709076;83;21806;-63
2020/12/13 07:49:27;;;;;;;61.63;21.15;;;;;;;1.47;83.49;100380.12;1709088;84;21222;-62
2020/12/13 07:51:56;;;;;;;49.50;17.98;;;;;;;1.49;83.51;100390.28;1708971;84;21276;-62
2020/12/13 07:54:26;;;;;;;58.00;19.70;;;;;;;1.51;83.53;100392.84;1709053;83;21067;-63
2020/12/13 07:56:57;;;;;;;47.98;17.75;;;;;;;1.52;83.52;100399.45;1708838;83;21154;-63
2020/12/13 07:59:27;;;;;;;45.78;18.12;;;;;;;1.54;83.56;100404.71;1708798;83;21154;-63
2020/12/13 08:01:58;;;;;;;48.00;20.10;;;;;;;1.52;83.54;100401.30;1708914;83;21269;-63
2020/12/13 08:04:35;;;;;;;45.65;16.20;;;;;;;1.49;83.55;100399.73;1709020;83;21115;-63
2020/12/13 08:07:12;;;;;;;55.52;18.57;;;;;;;1.50;83.58;100398.73;1708979;83;21303;-65
2020/12/13 08:09:43;;;;;;;48.40;17.23;;;;;;;1.48;83.56;100402.08;1708827;83;21330;-64
2020/12/13 08:12:11;;;;;;;45.65;15.88;;;;;;;1.49;83.60;100402.44;1709086;83;21457;-65
2020/12/13 08:14:40;;;;;;;48.02;18.05;;;;;;;1.49;83.60;100407.83;1709162;83;21051;-63
2020/12/13 08:17:07;;;;;;;46.13;18.00;;;;;;;1.49;83.65;100402.93;1709122;83;21866;-62
2020/12/13 08:19:45;;;;;;;40.90;17.10;;;;;;;1.48;83.69;100404.77;1708920;83;21063;-63
2020/12/13 08:22:24;;;;;;;45.63;17.35;;;;;;;1.49;83.69;100400.23;1708580;84;21107;-65
2020/12/13 08:25:00;;;;;;;41.45;17.07;;;;;;;1.48;83.72;100401.22;1708923;84;21342;-63
2020/12/13 08:27:29;;;;;;;44.05;16.97;;;;;;;1.47;83.68;100398.16;1709055;84;21370;-62
2020/12/13 08:29:57;;;;;;;49.95;18.42;;;;;;;1.49;83.74;100405.12;1709004;83;21853;-63
2020/12/13 08:32:31;;;;;;;45.43;21.85;;;;;;;1.49;83.75;100403.78;1708985;83;21063;-63
2020/12/13 08:35:15;;;;;;;48.33;20.05;;;;;;;1.49;83.78;100399.73;1681764;84;21278;-64
2020/12/13 08:38:00;;;;;;;46.75;17.70;;;;;;;1.48;83.82;100402.57;1709030;83;21289;-62
2020/12/13 08:40:42;;;;;;;45.12;18.02;;;;;;;1.49;83.84;100399.73;1709058;84;21281;-63
2020/12/13 08:43:12;;;;;;;45.67;18.25;;;;;;;1.49;83.77;100394.83;1709117;84;21378;-61
2020/12/13 08:45:40;;;;;;;41.88;17.55;;;;;;;1.48;83.84;100399.87;1708635;83;21114;-62
2020/12/13 08:48:09;;;;;;;41.95;18.12;;;;;;;1.48;83.86;100388.58;1708816;83;21358;-64
2020/12/13 08:50:41;;;;;;;47.17;20.27;;;;;;;1.50;83.90;100387.09;1708441;84;21090;-67
2020/12/13 08:53:22;;;;;;;43.52;19.48;;;;;;;1.53;83.93;100389.01;1708970;84;21816;-62
2020/12/13 08:56:08;;;;;;;48.25;19.82;;;;;;;1.54;83.89;100383.11;1708855;84;21079;-64
2020/12/13 08:58:51;;;;;;;51.40;19.75;;;;;;;1.55;83.89;100385.67;1708648;83;21323;-64
2020/12/13 09:01:23;;;;;;;37.78;16.62;;;;;;;1.58;83.86;100383.19;1689917;84;21799;-63
2020/12/13 09:03:49;;;;;;;41.70;18.62;;;;;;;1.57;83.83;100378.28;1708835;83;21318;-63
2020/12/13 09:06:32;;;;;;;43.38;17.35;;;;;;;1.58;83.78;100384.04;1709043;83;21098;-65
2020/12/13 09:09:12;;;;;;;36.00;16.70;;;;;;;1.61;83.78;100376.66;1709044;83;21354;-66
2020/12/13 09:11:41;;;;;;;44.50;18.32;;;;;;;1.61;83.70;100379.35;1709046;83;21288;-63
2020/12/13 09:14:09;;;;;;;43.38;19.17;;;;;;;1.57;83.60;100379.63;1708990;83;21250;-64
2020/12/13 09:16:36;;;;;;;38.10;15.28;;;;;;;1.61;83.60;100373.95;1708964;83;21299;-64
2020/12/13 09:19:08;;;;;;;43.63;17.92;;;;;;;1.62;83.48;100359.45;1708874;84;21123;-62
2020/12/13 09:21:42;;;;;;;44.00;19.05;;;;;;;1.59;83.40;100366.84;1708152;83;21102;-63
2020/12/13 09:24:09;;;;;;;44.15;19.95;;;;;;;1.61;83.39;100363.15;1708913;83;21250;-62
2020/12/13 09:26:37;;;;;;;44.85;20.50;;;;;;;1.61;83.36;100359.95;1708902;83;21774;-64
2020/12/13 09:29:04;;;;;;;47.95;19.98;;;;;;;1.64;83.35;100360.17;1708890;83;21863;-67
2020/12/13 09:31:32;;;;;;;40.85;17.52;;;;;;;1.66;83.36;100361.73;1707600;83;21462;-65
2020/12/13 09:33:59;;;;;;;45.30;17.95;;;;;;;1.70;83.27;100360.95;1709396;82;21371;-64
2020/12/13 09:36:27;;;;;;;42.62;19.70;;;;;;;1.70;83.18;100358.25;1709485;84;21160;-65
2020/12/13 09:38:54;;;;;;;37.75;18.25;;;;;;;1.71;83.18;100362.16;1710181;82;21884;-66
2020/12/13 09:41:22;;;;;;;43.92;18.70;;;;;;;1.73;83.13;100353.41;1710480;82;21180;-65
2020/12/13 09:43:50;;;;;;;44.42;18.07;;;;;;;1.74;83.04;100348.87;1710333;82;21070;-68
2020/12/13 09:46:18;;;;;;;41.45;16.80;;;;;;;1.74;82.97;100350.22;1710209;82;21129;-65
2020/12/13 09:48:46;;;;;;;41.50;17.62;;;;;;;1.73;82.90;100339.91;1710485;82;21061;-64
2020/12/13 09:51:17;;;;;;;46.73;18.52;;;;;;;1.76;82.83;100340.12;1710383;82;21933;-65
2020/12/13 09:53:45;;;;;;;45.50;19.67;;;;;;;1.79;82.85;100339.84;1710439;82;21298;-66
2020/12/13 09:56:17;;;;;;;42.35;18.37;;;;;;;1.81;82.84;100335.14;1710449;82;21758;-64
2020/12/13 09:58:45;;;;;;;45.20;19.20;;;;;;;1.82;82.73;100336.35;1710499;82;21345;-64
2020/12/13 10:01:14;;;;;;;41.25;16.02;;;;;;;1.83;82.62;100336.70;1710587;82;21631;-64
2020/12/13 10:03:46;;;;;;;38.88;16.70;;;;;;;1.84;82.50;100327.61;1710577;83;21751;-65
2020/12/13 10:09:07;;;;;;;43.20;19.20;;;;;;;1.83;82.25;100327.25;1710489;84;21785;-65
2020/12/13 10:11:38;;;;;;;46.77;19.05;;;;;;;1.82;82.25;100327.39;1710634;84;21033;-64
2020/12/13 10:14:06;;;;;;;53.15;22.07;;;;;;;1.84;82.30;100319.50;1710523;82;21294;-64
2020/12/13 10:16:34;;;;;;;43.23;17.80;;;;;;;1.87;82.27;100329.17;1710415;82;21808;-64
2020/12/13 10:19:02;;;;;;;43.25;19.07;;;;;;;1.91;82.20;100322.48;1710577;82;21281;-66
2020/12/13 10:21:30;;;;;;;44.42;18.12;;;;;;;1.91;82.07;100319.28;1710522;82;21370;-65
2020/12/13 10:23:58;;;;;;;43.05;19.80;;;;;;;1.94;82.04;100319.48;1710422;82;21674;-65
2020/12/13 10:26:29;;;;;;;42.88;18.95;;;;;;;1.94;81.96;100318.14;1710472;82;21053;-65
2020/12/13 10:28:56;;;;;;;40.60;18.27;;;;;;;1.94;81.87;100319.48;1710374;82;21073;-66
2020/12/13 10:31:36;;;;;;;49.58;19.57;;;;;;;1.91;81.87;100312.53;1710434;82;21841;-66
2020/12/13 10:34:06;;;;;;;43.80;18.42;;;;;;;1.90;81.81;100312.67;1710387;82;21392;-65
2020/12/13 10:36:34;;;;;;;45.08;18.82;;;;;;;1.92;81.82;100318.78;1682257;84;21109;-65
2020/12/13 10:39:04;;;;;;;44.38;18.92;;;;;;;1.94;81.79;100316.79;1709980;82;21380;-65
2020/12/13 10:41:32;;;;;;;43.50;18.17;;;;;;;1.98;81.80;100313.33;1710480;82;21085;-64
2020/12/13 10:43:59;;;;;;;43.08;19.40;;;;;;;2.00;81.76;100312.19;1710482;82;21814;-64
2020/12/13 10:46:27;;;;;;;45.75;18.00;;;;;;;2.00;81.69;100311.34;1711316;82;21276;-65
2020/12/13 10:48:55;;;;;;;41.02;16.10;;;;;;;2.02;81.66;100310.69;1713786;83;21284;-65
2020/12/13 10:51:23;;;;;;;43.80;17.55;;;;;;;2.02;81.51;100312.05;1713740;83;21076;-65
2020/12/13 10:53:50;;;;;;;48.13;19.05;;;;;;;2.00;81.51;100314.04;1713501;83;21307;-64
2020/12/13 10:56:17;;;;;;;42.33;18.82;;;;;;;2.02;81.56;100311.55;1713096;83;21784;-66
2020/12/13 10:58:46;;;;;;;51.00;20.40;;;;;;;2.05;81.53;100316.66;1713117;83;21139;-65
2020/12/13 11:01:13;;;;;;;43.52;18.10;;;;;;;2.04;81.44;100313.60;1713226;83;21103;-64
2020/12/13 11:03:42;;;;;;;37.80;15.60;;;;;;;2.05;81.38;100309.91;1713297;83;21075;-66
2020/12/13 11:06:10;;;;;;;43.30;17.92;;;;;;;2.07;81.32;100315.16;1713292;83;21402;-65
2020/12/13 11:08:37;;;;;;;36.95;15.63;;;;;;;2.06;81.28;100312.11;1713292;83;21879;-66
2020/12/13 11:11:10;;;;;;;45.63;17.37;;;;;;;2.05;81.26;100312.61;1713326;83;21039;-64
2020/12/13 11:13:34;;;;;;;37.55;15.40;;;;;;;2.04;81.25;100309.55;1713056;83;21341;-65
2020/12/13 11:16:02;;;;;;;30.37;13.48;;;;;;;2.04;81.26;100313.60;1713775;83;21071;-65
2020/12/13 11:18:31;;;;;;;29.40;13.83;;;;;;;2.04;81.19;100312.25;1713693;83;21392;-65
2020/12/13 11:20:58;;;;;;;32.95;14.23;;;;;;;2.05;81.08;100313.95;1713786;83;21879;-64
2020/12/13 11:23:27;;;;;;;32.75;15.50;;;;;;;2.04;81.01;100312.75;1713829;83;21315;-66
2020/12/13 11:25:54;;;;;;;29.70;14.38;;;;;;;2.02;81.05;100312.89;1713868;83;21095;-65
2020/12/13 11:28:22;;;;;;;30.45;11.93;;;;;;;2.03;81.09;100312.40;1713856;83;21810;-63
2020/12/13 11:30:50;;;;;;;28.80;11.97;;;;;;;2.04;81.08;100315.45;1713715;83;21327;-65
2020/12/13 11:33:18;;;;;;;30.88;13.65;;;;;;;2.07;80.97;100316.02;1713732;83;21290;-64
2020/12/13 11:35:45;;;;;;;29.45;15.32;;;;;;;2.05;80.92;100314.45;1713749;83;21072;-65
2020/12/13 11:38:13;;;;;;;31.02;14.30;;;;;;;2.04;80.94;100308.20;1713375;83;21732;-68
2020/12/13 11:40:41;;;;;;;24.67;11.68;;;;;;;2.04;80.97;100304.14;1713850;83;21258;-65